Time;durP1;ratioP1;P1;durP2;ratioP2;P2;SDS_P1;SDS_P2;PMS_P1;PMS_P2;Temp;Humidity;BMP_temperature;BMP_pressure;BME280_temperature;BME280_humidity;BME280_pressure;Samples;Min_cycle;Max_cycle;Signal;HPM_P1;HPM_P2
2023/10/31 00:01:06;;;;;;;2.90;0.60;;;;;;;;;;5133758;27;20023;-71
2023/10/31 00:03:32;;;;;;;0.22;0.22;;;;;;;;;;5132931;27;20071;-72
2023/10/31 00:05:58;;;;;;;2.28;0.30;;;;;;;;;;5133888;27;20416;-71
2023/10/31 00:08:24;;;;;;;0.40;0.40;;;;;;;;;;5133407;27;20033;-72
2023/10/31 00:10:50;;;;;;;0.65;0.45;;;;;;;;;;5133648;27;20011;-71
2023/10/31 00:13:16;;;;;;;0.52;0.22;;;;;;;;;;5125437;27;20410;-71
2023/10/31 00:15:42;;;;;;;0.30;0.30;;;;;;;;;;5132714;27;20071;-71
2023/10/31 00:18:08;;;;;;;1.85;0.50;;;;;;;;;;5130765;27;20524;-71
2023/10/31 00:20:34;;;;;;;0.73;0.32;;;;;;;;;;5124454;27;20019;-71
2023/10/31 00:23:00;;;;;;;0.50;0.30;;;;;;;;;;5132773;27;20507;-71
2023/10/31 00:25:26;;;;;;;0.82;0.70;;;;;;;;;;5131941;27;20122;-72
2023/10/31 00:27:52;;;;;;;0.30;0.30;;;;;;;;;;5135037;27;20363;-71
2023/10/31 00:30:18;;;;;;;0.50;0.30;;;;;;;;;;5130852;27;20105;-72
2023/10/31 00:32:44;;;;;;;1.75;0.30;;;;;;;;;;5111128;27;20027;-71
2023/10/31 00:35:12;;;;;;;0.68;0.40;;;;;;;;;;5115040;27;20134;-71
2023/10/31 00:37:39;;;;;;;0.52;0.30;;;;;;;;;;5131925;27;20027;-71
2023/10/31 00:40:05;;;;;;;3.55;0.30;;;;;;;;;;5133214;27;20510;-71
2023/10/31 00:42:31;;;;;;;1.55;0.40;;;;;;;;;;5123293;27;20516;-71
2023/10/31 00:44:57;;;;;;;0.63;0.40;;;;;;;;;;5131692;27;20098;-71
2023/10/31 00:47:26;;;;;;;1.30;0.40;;;;;;;;;;5131944;27;20542;-71
2023/10/31 00:49:53;;;;;;;0.30;0.30;;;;;;;;;;5133240;27;20035;-72
2023/10/31 00:52:19;;;;;;;0.40;0.40;;;;;;;;;;5132794;27;20016;-71
2023/10/31 00:54:45;;;;;;;0.68;0.38;;;;;;;;;;5132002;27;20027;-71
2023/10/31 00:57:11;;;;;;;1.20;0.20;;;;;;;;;;5132712;27;20027;-72
2023/10/31 00:59:39;;;;;;;1.08;0.15;;;;;;;;;;5131566;27;20019;-71
2023/10/31 01:02:05;;;;;;;1.25;0.30;;;;;;;;;;5132898;27;20523;-71
2023/10/31 01:04:31;;;;;;;1.42;0.20;;;;;;;;;;5131874;27;20027;-71
2023/10/31 01:06:57;;;;;;;0.52;0.20;;;;;;;;;;5132549;27;20436;-72
2023/10/31 01:09:23;;;;;;;1.10;0.20;;;;;;;;;;5132272;27;20413;-71
2023/10/31 01:11:49;;;;;;;1.88;0.40;;;;;;;;;;5132397;27;20023;-72
2023/10/31 01:14:15;;;;;;;0.43;0.30;;;;;;;;;;5123261;27;20072;-72
2023/10/31 01:16:41;;;;;;;0.17;0.17;;;;;;;;;;5121790;27;20039;-72
2023/10/31 01:19:07;;;;;;;0.85;0.20;;;;;;;;;;5125655;27;20047;-73
2023/10/31 01:21:33;;;;;;;2.33;0.20;;;;;;;;;;5119648;27;20517;-71
2023/10/31 01:24:00;;;;;;;4.03;0.32;;;;;;;;;;5121219;27;20011;-71
2023/10/31 01:26:26;;;;;;;0.63;0.28;;;;;;;;;;5118673;27;20038;-72
2023/10/31 01:28:53;;;;;;;5.15;0.60;;;;;;;;;;5123454;27;20456;-72
2023/10/31 01:31:19;;;;;;;0.82;0.50;;;;;;;;;;5126307;27;20019;-72
2023/10/31 01:33:45;;;;;;;2.35;0.30;;;;;;;;;;5129733;27;20098;-72
2023/10/31 01:36:12;;;;;;;0.30;0.30;;;;;;;;;;5131720;28;20043;-72
2023/10/31 01:38:38;;;;;;;0.50;0.20;;;;;;;;;;5126021;28;20061;-72
2023/10/31 01:41:05;;;;;;;4.38;0.52;;;;;;;;;;5114299;28;20027;-72
2023/10/31 01:43:34;;;;;;;3.25;0.50;;;;;;;;;;5130961;28;20023;-72
2023/10/31 01:46:01;;;;;;;2.00;0.30;;;;;;;;;;5113952;27;20520;-72
2023/10/31 01:48:29;;;;;;;2.50;0.30;;;;;;;;;;5129453;27;20257;-72
2023/10/31 01:50:56;;;;;;;0.75;0.30;;;;;;;;;;5137260;27;19930;-72
2023/10/31 01:53:23;;;;;;;1.85;0.32;;;;;;;;;;5135777;27;20015;-72
2023/10/31 01:55:50;;;;;;;1.52;0.38;;;;;;;;;;5136048;27;20463;-72
2023/10/31 01:58:16;;;;;;;0.40;0.40;;;;;;;;;;5135627;27;20019;-73
2023/10/31 02:00:43;;;;;;;0.20;0.20;;;;;;;;;;5135701;27;20051;-73
2023/10/31 02:03:09;;;;;;;4.65;0.60;;;;;;;;;;5135642;27;20023;-71
2023/10/31 02:05:35;;;;;;;1.58;0.40;;;;;;;;;;5116770;27;20023;-71
2023/10/31 02:08:08;;;;;;;0.45;0.30;;;;;;;;;;5134661;27;20016;-70
2023/10/31 02:10:34;;;;;;;4.13;0.50;;;;;;;;;;5127393;27;20031;-71
2023/10/31 02:13:10;;;;;;;2.30;0.50;;;;;;;;;;5135761;27;20050;-71
2023/10/31 02:15:36;;;;;;;0.50;0.30;;;;;;;;;;5134818;27;20042;-71
2023/10/31 02:18:02;;;;;;;0.85;0.40;;;;;;;;;;5135670;27;20019;-71
2023/10/31 02:20:28;;;;;;;1.50;0.50;;;;;;;;;;5135394;27;20027;-71
2023/10/31 02:22:54;;;;;;;1.95;0.57;;;;;;;;;;5135290;27;20026;-71
2023/10/31 02:25:20;;;;;;;1.15;0.40;;;;;;;;;;5136430;27;20452;-71
2023/10/31 02:27:46;;;;;;;4.00;0.70;;;;;;;;;;5134678;27;20117;-71
2023/10/31 02:30:13;;;;;;;2.17;0.60;;;;;;;;;;5135679;27;20034;-70
2023/10/31 02:32:39;;;;;;;0.85;0.40;;;;;;;;;;5133647;27;20151;-71
2023/10/31 02:35:05;;;;;;;0.30;0.30;;;;;;;;;;5135609;27;20058;-70
2023/10/31 02:37:31;;;;;;;2.20;0.50;;;;;;;;;;5134950;27;20072;-71
2023/10/31 02:39:57;;;;;;;0.60;0.38;;;;;;;;;;5135561;27;20026;-71
2023/10/31 02:42:23;;;;;;;1.85;0.57;;;;;;;;;;5135640;27;20019;-71
2023/10/31 02:44:49;;;;;;;1.85;0.63;;;;;;;;;;5134693;27;20025;-71
2023/10/31 02:47:15;;;;;;;2.53;0.50;;;;;;;;;;5135593;27;20410;-71
2023/10/31 02:49:41;;;;;;;1.25;0.30;;;;;;;;;;5134389;27;20035;-71
2023/10/31 02:52:07;;;;;;;0.30;0.25;;;;;;;;;;5135274;27;20024;-72
2023/10/31 02:54:33;;;;;;;4.65;0.82;;;;;;;;;;5133913;27;20020;-72
2023/10/31 02:56:59;;;;;;;0.60;0.30;;;;;;;;;;5135521;27;20037;-72
2023/10/31 02:59:25;;;;;;;0.95;0.85;;;;;;;;;;5133370;27;20080;-72
2023/10/31 03:01:51;;;;;;;2.17;0.50;;;;;;;;;;5134979;27;20023;-73
2023/10/31 03:04:17;;;;;;;0.20;0.20;;;;;;;;;;5128787;27;20397;-72
2023/10/31 03:06:43;;;;;;;2.95;0.40;;;;;;;;;;5133794;27;20023;-72
2023/10/31 03:09:09;;;;;;;1.38;0.40;;;;;;;;;;5133424;27;20108;-72
2023/10/31 03:11:35;;;;;;;0.52;0.50;;;;;;;;;;5133819;27;20016;-71
2023/10/31 03:14:01;;;;;;;2.03;0.52;;;;;;;;;;5134719;27;20020;-72
2023/10/31 03:16:27;;;;;;;1.85;0.50;;;;;;;;;;5134464;27;20071;-71
2023/10/31 03:18:53;;;;;;;1.60;0.47;;;;;;;;;;5134310;27;20015;-71
2023/10/31 03:21:19;;;;;;;1.33;0.45;;;;;;;;;;5135029;27;20396;-73
2023/10/31 03:23:49;;;;;;;0.90;0.68;;;;;;;;;;5133677;27;20019;-73
2023/10/31 03:26:15;;;;;;;2.00;0.60;;;;;;;;;;5134759;27;20047;-72
2023/10/31 03:28:42;;;;;;;2.75;0.70;;;;;;;;;;5133541;27;20031;-71
2023/10/31 03:31:09;;;;;;;1.92;0.40;;;;;;;;;;5133660;27;20028;-72
2023/10/31 03:33:35;;;;;;;1.15;0.47;;;;;;;;;;5133749;27;20347;-72
2023/10/31 03:36:01;;;;;;;1.88;1.23;;;;;;;;;;5134681;27;20019;-72
2023/10/31 03:38:27;;;;;;;4.22;0.60;;;;;;;;;;5133818;27;20088;-71
2023/10/31 03:40:54;;;;;;;1.20;0.40;;;;;;;;;;5134150;27;20015;-72
2023/10/31 03:43:20;;;;;;;1.45;0.63;;;;;;;;;;5133810;27;20422;-72
2023/10/31 03:45:47;;;;;;;0.52;0.40;;;;;;;;;;5132969;27;20650;-72
2023/10/31 03:48:13;;;;;;;2.30;0.55;;;;;;;;;;5132837;27;20469;-72
2023/10/31 03:50:39;;;;;;;1.85;0.70;;;;;;;;;;5133348;27;20035;-72
2023/10/31 03:53:05;;;;;;;2.38;1.00;;;;;;;;;;5133294;27;20409;-72
2023/10/31 03:55:31;;;;;;;5.00;0.70;;;;;;;;;;5132591;27;20023;-72
2023/10/31 03:57:57;;;;;;;0.98;0.52;;;;;;;;;;5133328;27;20067;-71
2023/10/31 04:00:23;;;;;;;1.15;0.70;;;;;;;;;;5133293;27;20440;-73
2023/10/31 04:02:49;;;;;;;2.22;0.60;;;;;;;;;;5132700;27;20015;-72
2023/10/31 04:05:15;;;;;;;0.85;0.60;;;;;;;;;;5133278;27;20026;-72
2023/10/31 04:07:43;;;;;;;1.50;0.68;;;;;;;;;;5114058;27;20086;-72
2023/10/31 04:10:09;;;;;;;2.08;0.60;;;;;;;;;;5132295;27;20106;-72
2023/10/31 04:12:35;;;;;;;1.30;0.60;;;;;;;;;;5131599;27;20053;-72
2023/10/31 04:15:02;;;;;;;1.13;0.50;;;;;;;;;;5132087;27;20019;-71
2023/10/31 04:17:28;;;;;;;1.08;0.57;;;;;;;;;;5113090;27;20460;-72
2023/10/31 04:19:54;;;;;;;1.58;0.73;;;;;;;;;;5122827;27;20016;-73
2023/10/31 04:22:20;;;;;;;1.27;0.70;;;;;;;;;;5132734;27;20040;-72
2023/10/31 04:24:46;;;;;;;2.03;0.68;;;;;;;;;;5117152;27;20312;-72
2023/10/31 04:27:12;;;;;;;1.55;0.57;;;;;;;;;;5133187;27;20018;-71
2023/10/31 04:29:38;;;;;;;2.47;0.70;;;;;;;;;;5136469;27;20082;-72
2023/10/31 04:32:04;;;;;;;3.10;0.60;;;;;;;;;;5133643;27;20054;-72
2023/10/31 04:34:30;;;;;;;2.17;0.73;;;;;;;;;;5129168;27;20016;-72
2023/10/31 04:36:56;;;;;;;1.58;0.70;;;;;;;;;;5138342;27;20094;-71
2023/10/31 04:39:22;;;;;;;2.25;0.60;;;;;;;;;;5141694;27;20439;-72
2023/10/31 04:41:48;;;;;;;0.68;0.40;;;;;;;;;;5141272;27;20061;-71
2023/10/31 04:44:14;;;;;;;1.55;0.47;;;;;;;;;;5121944;27;20016;-72
2023/10/31 04:46:40;;;;;;;2.58;0.60;;;;;;;;;;5131140;27;20090;-72
2023/10/31 04:49:06;;;;;;;1.33;0.57;;;;;;;;;;5126359;27;20094;-71
2023/10/31 04:51:38;;;;;;;2.70;0.60;;;;;;;;;;5131535;27;20019;-72
2023/10/31 04:54:04;;;;;;;3.22;0.50;;;;;;;;;;5131190;27;20073;-72
2023/10/31 04:56:31;;;;;;;2.25;0.70;;;;;;;;;;5114598;27;20013;-71
2023/10/31 04:58:57;;;;;;;1.35;0.60;;;;;;;;;;5111991;27;20019;-72
2023/10/31 05:01:24;;;;;;;0.55;0.40;;;;;;;;;;5123905;27;20102;-71
2023/10/31 05:03:50;;;;;;;2.28;0.60;;;;;;;;;;5128930;27;20003;-71
2023/10/31 05:06:19;;;;;;;0.68;0.55;;;;;;;;;;5130649;27;20487;-72
2023/10/31 05:08:45;;;;;;;1.65;0.43;;;;;;;;;;5129989;27;20018;-71
2023/10/31 05:11:11;;;;;;;1.23;0.73;;;;;;;;;;5131773;27;20064;-72
2023/10/31 05:13:38;;;;;;;0.70;0.50;;;;;;;;;;5128549;27;20027;-72
2023/10/31 05:16:05;;;;;;;0.85;0.32;;;;;;;;;;5101221;27;20126;-73
2023/10/31 05:18:31;;;;;;;1.58;0.45;;;;;;;;;;5100405;28;20452;-73
2023/10/31 05:20:56;;;;;;;0.50;0.50;;;;;;;;;;5127757;27;20448;-73
2023/10/31 05:23:22;;;;;;;0.40;0.40;;;;;;;;;;5129640;27;20014;-72
2023/10/31 05:25:48;;;;;;;1.20;0.60;;;;;;;;;;5131825;27;20122;-73
2023/10/31 05:28:14;;;;;;;0.50;0.32;;;;;;;;;;5131431;27;20475;-73
2023/10/31 05:30:40;;;;;;;3.83;0.50;;;;;;;;;;5130343;27;20075;-72
2023/10/31 05:33:06;;;;;;;0.93;0.65;;;;;;;;;;5131288;27;20015;-73
2023/10/31 05:35:33;;;;;;;2.47;0.50;;;;;;;;;;5131298;27;20027;-73
2023/10/31 05:37:59;;;;;;;3.90;0.50;;;;;;;;;;5131804;28;20050;-73
2023/10/31 05:40:27;;;;;;;1.05;0.50;;;;;;;;;;5131485;28;20047;-72
2023/10/31 05:42:53;;;;;;;2.80;0.93;;;;;;;;;;5131099;28;20022;-72
2023/10/31 05:45:19;;;;;;;2.08;0.50;;;;;;;;;;5131933;28;20015;-75
2023/10/31 05:47:45;;;;;;;0.50;0.50;;;;;;;;;;5130349;28;20478;-72
2023/10/31 05:50:11;;;;;;;1.60;0.57;;;;;;;;;;5129096;28;20463;-73
2023/10/31 05:52:37;;;;;;;3.92;0.70;;;;;;;;;;5130201;28;20019;-73
2023/10/31 05:55:03;;;;;;;0.50;0.40;;;;;;;;;;5129673;28;20483;-72
2023/10/31 05:57:29;;;;;;;1.00;0.57;;;;;;;;;;5126373;28;20031;-72
2023/10/31 05:59:55;;;;;;;2.28;0.40;;;;;;;;;;5113039;28;20015;-72
2023/10/31 06:02:21;;;;;;;0.98;0.50;;;;;;;;;;5128265;28;20369;-74
2023/10/31 06:04:47;;;;;;;1.15;0.35;;;;;;;;;;5127331;28;20020;-75
2023/10/31 06:07:13;;;;;;;1.00;0.35;;;;;;;;;;5133496;27;20019;-77
2023/10/31 06:09:39;;;;;;;0.73;0.38;;;;;;;;;;5129518;28;20114;-75
2023/10/31 06:12:05;;;;;;;1.10;0.40;;;;;;;;;;5131264;28;20011;-76
2023/10/31 06:14:32;;;;;;;0.93;0.65;;;;;;;;;;5121746;28;20024;-76
2023/10/31 06:16:59;;;;;;;0.35;0.30;;;;;;;;;;5127957;28;20039;-74
2023/10/31 06:19:25;;;;;;;1.25;0.43;;;;;;;;;;5127729;28;20052;-72
2023/10/31 06:21:51;;;;;;;2.20;0.47;;;;;;;;;;5131003;28;20041;-74
2023/10/31 06:24:17;;;;;;;4.45;0.40;;;;;;;;;;5125005;27;20464;-72
2023/10/31 06:26:43;;;;;;;3.55;0.60;;;;;;;;;;5106743;28;20012;-75
2023/10/31 06:29:09;;;;;;;1.20;0.60;;;;;;;;;;5125627;28;20076;-71
2023/10/31 06:31:35;;;;;;;1.85;0.30;;;;;;;;;;5129470;28;20581;-71
2023/10/31 06:34:01;;;;;;;1.70;0.52;;;;;;;;;;5134123;27;20015;-74
2023/10/31 06:36:27;;;;;;;1.17;0.65;;;;;;;;;;5115971;27;20378;-73
2023/10/31 06:38:53;;;;;;;1.58;0.40;;;;;;;;;;5132994;27;20131;-74
2023/10/31 06:41:19;;;;;;;1.27;0.45;;;;;;;;;;5134707;27;20023;-73
2023/10/31 06:43:45;;;;;;;1.17;0.32;;;;;;;;;;5132961;27;20094;-73
2023/10/31 06:46:11;;;;;;;1.17;0.43;;;;;;;;;;5131713;27;20019;-84
2023/10/31 06:48:37;;;;;;;2.20;0.57;;;;;;;;;;5135102;27;20040;-73
2023/10/31 06:51:04;;;;;;;1.05;0.40;;;;;;;;;;5134391;27;20064;-72
2023/10/31 06:53:30;;;;;;;4.85;0.70;;;;;;;;;;5133483;27;20015;-69
2023/10/31 06:55:56;;;;;;;0.70;0.50;;;;;;;;;;5122638;27;20122;-70
2023/10/31 06:58:22;;;;;;;1.88;0.43;;;;;;;;;;5133985;27;20484;-69
2023/10/31 07:00:48;;;;;;;0.40;0.25;;;;;;;;;;5133135;27;20106;-69
2023/10/31 07:03:15;;;;;;;2.00;0.50;;;;;;;;;;5126461;27;20015;-70
2023/10/31 07:05:41;;;;;;;0.95;0.35;;;;;;;;;;5122389;27;20459;-73
2023/10/31 07:08:07;;;;;;;2.30;0.50;;;;;;;;;;5133723;27;20019;-71
2023/10/31 07:10:33;;;;;;;4.07;0.32;;;;;;;;;;5129443;27;20433;-70
2023/10/31 07:13:00;;;;;;;6.85;0.60;;;;;;;;;;5133419;27;20015;-70
2023/10/31 07:15:26;;;;;;;1.30;0.50;;;;;;;;;;5122078;27;20050;-70
2023/10/31 07:17:52;;;;;;;2.55;0.35;;;;;;;;;;5115735;27;20452;-71
2023/10/31 07:20:18;;;;;;;1.83;0.47;;;;;;;;;;5115868;27;20031;-71
2023/10/31 07:22:45;;;;;;;0.70;0.50;;;;;;;;;;5133044;27;20015;-71
2023/10/31 07:25:11;;;;;;;2.80;0.50;;;;;;;;;;5124188;27;20024;-68
2023/10/31 07:27:37;;;;;;;4.85;0.57;;;;;;;;;;5133873;27;20121;-70
2023/10/31 07:30:06;;;;;;;0.65;0.40;;;;;;;;;;5126967;27;20127;-70
2023/10/31 07:32:32;;;;;;;6.57;0.80;;;;;;;;;;5127781;27;20102;-69
2023/10/31 07:34:58;;;;;;;1.58;0.50;;;;;;;;;;5128188;27;20080;-71
2023/10/31 07:37:24;;;;;;;1.90;0.45;;;;;;;;;;5139672;27;20062;-70
2023/10/31 07:39:53;;;;;;;2.20;0.60;;;;;;;;;;5132465;27;20475;-71
2023/10/31 07:42:19;;;;;;;3.08;0.32;;;;;;;;;;5133736;27;20023;-70
2023/10/31 07:44:45;;;;;;;0.25;0.25;;;;;;;;;;5125843;27;20066;-70
2023/10/31 07:47:11;;;;;;;1.13;0.40;;;;;;;;;;5128974;27;20031;-70
2023/10/31 07:49:37;;;;;;;1.70;0.40;;;;;;;;;;5114559;27;20353;-71
2023/10/31 07:52:03;;;;;;;1.42;0.47;;;;;;;;;;5120663;27;20008;-71
2023/10/31 07:54:29;;;;;;;2.55;0.60;;;;;;;;;;5128761;27;20026;-70
2023/10/31 07:56:55;;;;;;;2.47;0.45;;;;;;;;;;5131379;27;20023;-71
2023/10/31 07:59:21;;;;;;;1.95;0.60;;;;;;;;;;5130745;27;20023;-71
2023/10/31 08:01:48;;;;;;;0.93;0.50;;;;;;;;;;5117533;27;20755;-70
2023/10/31 08:04:16;;;;;;;2.45;0.70;;;;;;;;;;5132275;27;20417;-70
2023/10/31 08:06:42;;;;;;;5.45;0.68;;;;;;;;;;5131181;27;20234;-70
2023/10/31 08:09:08;;;;;;;1.00;0.40;;;;;;;;;;5132565;27;20034;-71
2023/10/31 08:11:35;;;;;;;0.98;0.50;;;;;;;;;;5123049;27;20038;-71
2023/10/31 08:14:02;;;;;;;4.80;0.60;;;;;;;;;;5132690;27;20333;-70
2023/10/31 08:16:28;;;;;;;2.60;0.50;;;;;;;;;;5115826;27;20040;-69
2023/10/31 08:18:54;;;;;;;2.30;0.40;;;;;;;;;;5123505;27;20098;-70
2023/10/31 08:21:20;;;;;;;1.25;0.47;;;;;;;;;;5125949;27;20027;-70
2023/10/31 08:23:46;;;;;;;1.98;0.50;;;;;;;;;;5131795;27;20019;-70
2023/10/31 08:26:13;;;;;;;4.28;0.47;;;;;;;;;;5131743;27;20387;-71
2023/10/31 08:28:40;;;;;;;1.48;0.40;;;;;;;;;;5131610;27;20481;-70
2023/10/31 08:31:06;;;;;;;1.73;0.40;;;;;;;;;;5113370;27;20042;-70
2023/10/31 08:33:32;;;;;;;3.88;0.68;;;;;;;;;;5123269;27;20100;-70
2023/10/31 08:35:59;;;;;;;0.40;0.38;;;;;;;;;;5128011;27;20034;-70
2023/10/31 08:38:25;;;;;;;1.42;0.50;;;;;;;;;;5131837;27;20091;-70
2023/10/31 08:40:51;;;;;;;1.60;0.55;;;;;;;;;;5118680;27;20020;-71
2023/10/31 08:43:17;;;;;;;2.58;0.70;;;;;;;;;;5130003;27;20412;-70
2023/10/31 08:45:43;;;;;;;2.25;0.55;;;;;;;;;;5128016;27;20050;-72
2023/10/31 08:48:09;;;;;;;1.90;0.50;;;;;;;;;;5131282;27;20097;-70
2023/10/31 08:50:35;;;;;;;1.63;0.45;;;;;;;;;;5127813;27;20042;-70
2023/10/31 08:53:01;;;;;;;3.25;0.90;;;;;;;;;;5131436;27;20027;-70
2023/10/31 08:55:27;;;;;;;2.47;0.50;;;;;;;;;;5128025;27;20019;-70
2023/10/31 08:57:53;;;;;;;5.20;1.35;;;;;;;;;;5131280;27;20022;-71
2023/10/31 09:00:19;;;;;;;0.63;0.52;;;;;;;;;;5124388;27;20034;-71
2023/10/31 09:02:45;;;;;;;2.22;0.70;;;;;;;;;;5124176;27;20030;-70
2023/10/31 09:05:11;;;;;;;2.63;0.50;;;;;;;;;;5129312;27;20019;-70
2023/10/31 09:07:37;;;;;;;2.50;0.70;;;;;;;;;;5130459;27;20015;-70
2023/10/31 09:10:05;;;;;;;3.80;1.23;;;;;;;;;;5129510;27;20071;-70
2023/10/31 09:12:31;;;;;;;2.25;0.68;;;;;;;;;;5127961;27;20360;-70
2023/10/31 09:14:57;;;;;;;3.42;0.68;;;;;;;;;;5129848;27;20023;-70
2023/10/31 09:17:23;;;;;;;5.50;0.93;;;;;;;;;;5130665;27;20480;-70
2023/10/31 09:19:49;;;;;;;3.55;1.13;;;;;;;;;;5128707;27;20076;-70
2023/10/31 09:22:16;;;;;;;2.13;0.80;;;;;;;;;;5119385;27;20019;-71
2023/10/31 09:24:43;;;;;;;1.05;0.47;;;;;;;;;;5110691;27;20812;-69
2023/10/31 09:27:10;;;;;;;3.80;0.88;;;;;;;;;;5130733;27;20438;-69
2023/10/31 09:29:36;;;;;;;3.63;0.63;;;;;;;;;;5129319;27;20019;-69
2023/10/31 09:32:02;;;;;;;3.72;0.80;;;;;;;;;;5118698;28;20505;-69
2023/10/31 09:34:28;;;;;;;2.22;1.10;;;;;;;;;;5130363;27;20023;-69
2023/10/31 09:36:54;;;;;;;4.20;0.70;;;;;;;;;;5129567;27;20382;-69
2023/10/31 09:39:20;;;;;;;5.75;0.80;;;;;;;;;;5129406;28;20023;-69
2023/10/31 09:41:47;;;;;;;2.85;0.68;;;;;;;;;;5118927;28;20706;-69
2023/10/31 09:44:13;;;;;;;3.92;0.95;;;;;;;;;;5131291;28;20572;-68
2023/10/31 09:46:40;;;;;;;5.07;0.80;;;;;;;;;;5131107;27;20016;-68
2023/10/31 09:49:07;;;;;;;9.70;0.70;;;;;;;;;;5130590;28;20039;-68
2023/10/31 09:51:33;;;;;;;3.13;0.50;;;;;;;;;;5119923;28;20023;-68
2023/10/31 09:54:00;;;;;;;3.25;0.75;;;;;;;;;;5130919;28;20015;-68
2023/10/31 09:56:30;;;;;;;4.10;0.70;;;;;;;;;;5120401;28;20023;-68
2023/10/31 09:58:58;;;;;;;3.55;0.90;;;;;;;;;;5131180;28;20373;-68
2023/10/31 10:01:24;;;;;;;1.55;0.70;;;;;;;;;;5127637;28;20305;-68
2023/10/31 10:03:50;;;;;;;5.03;0.90;;;;;;;;;;5131097;28;20011;-68
2023/10/31 10:06:21;;;;;;;2.78;0.90;;;;;;;;;;5131789;28;20031;-68
2023/10/31 10:08:46;;;;;;;;;;;;;;;;;;5133717;27;20019;-69
2023/10/31 10:11:13;;;;;;;5.10;0.90;;;;;;;;;;5125712;27;19907;-68
2023/10/31 10:13:38;;;;;;;2.95;1.00;;;;;;;;;;5135093;27;20031;-69
2023/10/31 10:16:05;;;;;;;5.75;0.73;;;;;;;;;;5125479;27;20047;-68
2023/10/31 10:18:32;;;;;;;8.40;1.20;;;;;;;;;;5125796;27;20354;-68
2023/10/31 10:20:59;;;;;;;2.53;0.82;;;;;;;;;;5139128;27;20023;-68
2023/10/31 10:23:26;;;;;;;1.83;0.90;;;;;;;;;;5135285;27;20023;-68
2023/10/31 10:25:52;;;;;;;4.75;1.25;;;;;;;;;;5131014;27;20098;-68
2023/10/31 10:28:21;;;;;;;3.28;1.10;;;;;;;;;;5127079;27;20102;-68
2023/10/31 10:30:48;;;;;;;4.40;0.98;;;;;;;;;;5129661;27;20028;-69
2023/10/31 10:33:14;;;;;;;4.00;1.17;;;;;;;;;;5134829;27;20027;-68
2023/10/31 10:35:40;;;;;;;2.63;1.20;;;;;;;;;;5129238;27;20039;-68
2023/10/31 10:38:16;;;;;;;4.85;1.20;;;;;;;;;;5134385;27;20019;-69
2023/10/31 10:40:44;;;;;;;3.85;0.80;;;;;;;;;;5130021;27;20031;-68
2023/10/31 10:43:14;;;;;;;4.30;0.90;;;;;;;;;;5134914;27;20019;-68
2023/10/31 10:45:43;;;;;;;2.60;0.93;;;;;;;;;;5124452;27;20020;-68
2023/10/31 10:48:11;;;;;;;7.10;1.10;;;;;;;;;;5124486;27;20109;-69
2023/10/31 10:50:41;;;;;;;2.78;0.80;;;;;;;;;;5132330;27;20289;-69
2023/10/31 10:53:09;;;;;;;5.63;1.17;;;;;;;;;;5134642;27;20482;-69
2023/10/31 10:55:39;;;;;;;3.40;1.58;;;;;;;;;;5134027;27;20480;-69
2023/10/31 10:58:22;;;;;;;2.63;1.30;;;;;;;;;;5132596;27;20029;-69
2023/10/31 11:00:50;;;;;;;3.03;0.88;;;;;;;;;;5130097;27;20050;-69
2023/10/31 11:03:18;;;;;;;2.72;0.50;;;;;;;;;;5131649;27;20027;-69
2023/10/31 11:05:44;;;;;;;4.45;0.85;;;;;;;;;;5130235;27;20102;-68
2023/10/31 11:08:10;;;;;;;2.42;0.95;;;;;;;;;;5122913;27;20026;-69
2023/10/31 11:10:36;;;;;;;4.60;1.30;;;;;;;;;;5131515;27;20111;-69
2023/10/31 11:13:02;;;;;;;2.92;0.80;;;;;;;;;;5132509;27;20026;-69
2023/10/31 11:15:29;;;;;;;3.15;0.90;;;;;;;;;;5132776;27;20052;-69
2023/10/31 11:17:56;;;;;;;4.60;0.98;;;;;;;;;;5121142;27;20019;-69
2023/10/31 11:20:28;;;;;;;5.53;0.93;;;;;;;;;;5133103;27;20023;-68
2023/10/31 11:22:57;;;;;;;1.88;0.90;;;;;;;;;;5133817;27;20228;-72
2023/10/31 11:25:23;;;;;;;2.00;0.95;;;;;;;;;;5124283;27;20016;-68
2023/10/31 11:27:53;;;;;;;2.85;1.00;;;;;;;;;;5125423;27;20125;-68
2023/10/31 11:30:22;;;;;;;2.70;0.80;;;;;;;;;;5134446;27;20034;-68
2023/10/31 11:32:55;;;;;;;3.22;0.85;;;;;;;;;;5132362;27;20079;-68
2023/10/31 11:35:23;;;;;;;2.95;0.70;;;;;;;;;;5129851;27;20051;-69
2023/10/31 11:37:50;;;;;;;6.45;0.90;;;;;;;;;;5127973;27;20019;-68
2023/10/31 11:40:22;;;;;;;1.52;0.60;;;;;;;;;;5133534;27;20106;-68
2023/10/31 11:42:50;;;;;;;2.65;0.60;;;;;;;;;;5131101;27;20025;-71
2023/10/31 11:45:26;;;;;;;2.35;0.70;;;;;;;;;;5123046;27;20038;-69
2023/10/31 11:47:52;;;;;;;2.63;0.90;;;;;;;;;;5120228;27;20023;-68
2023/10/31 11:50:18;;;;;;;4.43;1.42;;;;;;;;;;5133969;27;20042;-71
2023/10/31 11:52:44;;;;;;;4.32;1.15;;;;;;;;;;5131031;27;20208;-69
2023/10/31 11:55:11;;;;;;;4.47;0.90;;;;;;;;;;5133791;27;20478;-69
2023/10/31 11:57:38;;;;;;;3.38;1.20;;;;;;;;;;5119908;27;20019;-68
2023/10/31 12:00:04;;;;;;;4.30;0.90;;;;;;;;;;5133963;27;20026;-70
2023/10/31 12:02:30;;;;;;;1.33;0.90;;;;;;;;;;5130759;27;20046;-68
2023/10/31 12:05:08;;;;;;;3.03;1.15;;;;;;;;;;5124076;27;20052;-68
2023/10/31 12:07:44;;;;;;;3.00;1.00;;;;;;;;;;5120310;27;20030;-69
2023/10/31 12:10:10;;;;;;;3.67;1.08;;;;;;;;;;5129183;27;20055;-69
2023/10/31 12:12:36;;;;;;;3.95;1.05;;;;;;;;;;5131959;27;20050;-70
2023/10/31 12:15:09;;;;;;;4.63;0.80;;;;;;;;;;5127075;27;20043;-66
2023/10/31 12:17:35;;;;;;;3.70;0.75;;;;;;;;;;5130913;27;20109;-68
2023/10/31 12:20:08;;;;;;;2.78;0.60;;;;;;;;;;5133402;27;20019;-68
2023/10/31 12:22:35;;;;;;;2.55;0.98;;;;;;;;;;5130974;27;20023;-69
2023/10/31 12:25:04;;;;;;;2.50;0.80;;;;;;;;;;5131940;27;20011;-68
2023/10/31 12:28:02;;;;;;;2.73;0.60;;;;;;;;;;5128811;27;20019;-69
2023/10/31 12:30:28;;;;;;;2.33;0.77;;;;;;;;;;5069870;27;20219;-69
2023/10/31 12:32:55;;;;;;;2.47;0.70;;;;;;;;;;5125388;27;20024;-69
2023/10/31 12:35:22;;;;;;;5.25;0.95;;;;;;;;;;5120555;27;20023;-69
2023/10/31 12:37:53;;;;;;;1.50;0.70;;;;;;;;;;5104818;28;20100;-70
2023/10/31 12:40:18;;;;;;;;;;;;;;;;;;5124249;27;20054;-70
2023/10/31 12:42:45;;;;;;;3.78;0.57;;;;;;;;;;5124003;27;19942;-69
2023/10/31 12:45:12;;;;;;;0.95;0.60;;;;;;;;;;5118912;27;20028;-69
2023/10/31 12:47:38;;;;;;;3.17;0.50;;;;;;;;;;5125683;27;20490;-69
2023/10/31 12:50:06;;;;;;;3.80;0.85;;;;;;;;;;5132906;27;20029;-69
2023/10/31 12:52:47;;;;;;;4.30;0.75;;;;;;;;;;5124533;27;20030;-69
2023/10/31 12:55:14;;;;;;;3.58;0.90;;;;;;;;;;5132882;27;20416;-69
2023/10/31 12:57:40;;;;;;;5.85;0.70;;;;;;;;;;5120648;27;20023;-69
2023/10/31 13:00:09;;;;;;;0.70;0.60;;;;;;;;;;5132527;27;20057;-69
2023/10/31 13:02:35;;;;;;;2.07;0.73;;;;;;;;;;5120671;27;20073;-69
2023/10/31 13:05:21;;;;;;;6.30;0.80;;;;;;;;;;5128188;27;20019;-69
2023/10/31 13:07:52;;;;;;;2.67;0.88;;;;;;;;;;5117588;27;20836;-69
2023/10/31 13:10:18;;;;;;;1.40;0.70;;;;;;;;;;5132130;27;20023;-69
2023/10/31 13:12:47;;;;;;;2.92;0.85;;;;;;;;;;5129130;27;20093;-69
2023/10/31 13:15:14;;;;;;;3.30;0.45;;;;;;;;;;5131073;27;20033;-69
2023/10/31 13:17:44;;;;;;;1.58;0.45;;;;;;;;;;5118793;27;20037;-70
2023/10/31 13:20:10;;;;;;;0.57;0.43;;;;;;;;;;5132188;27;20023;-70
2023/10/31 13:22:37;;;;;;;4.28;0.60;;;;;;;;;;5129692;27;20022;-70
2023/10/31 13:25:04;;;;;;;3.53;0.60;;;;;;;;;;5123757;27;20356;-69
2023/10/31 13:27:35;;;;;;;3.35;0.77;;;;;;;;;;5126374;27;20086;-70
2023/10/31 13:30:01;;;;;;;1.90;0.40;;;;;;;;;;5132498;27;20023;-71
2023/10/31 13:32:27;;;;;;;3.88;0.68;;;;;;;;;;5130175;27;20027;-70
2023/10/31 13:34:53;;;;;;;2.50;0.90;;;;;;;;;;5131789;27;20046;-70
2023/10/31 13:37:19;;;;;;;1.20;0.73;;;;;;;;;;5120897;27;20020;-71
2023/10/31 13:39:45;;;;;;;1.23;0.40;;;;;;;;;;5130750;28;20106;-71
2023/10/31 13:42:11;;;;;;;3.80;0.70;;;;;;;;;;5131273;27;20452;-70
2023/10/31 13:44:38;;;;;;;1.63;0.77;;;;;;;;;;5113112;28;20011;-70
2023/10/31 13:47:04;;;;;;;1.10;0.60;;;;;;;;;;5110954;28;20015;-70
2023/10/31 13:49:30;;;;;;;2.10;0.63;;;;;;;;;;5130565;28;20110;-70
2023/10/31 13:51:56;;;;;;;0.52;0.43;;;;;;;;;;5123836;28;20098;-69
2023/10/31 13:54:22;;;;;;;2.67;0.57;;;;;;;;;;5130200;28;20019;-70
2023/10/31 13:56:48;;;;;;;1.15;0.50;;;;;;;;;;5123399;28;20093;-70
2023/10/31 13:59:14;;;;;;;2.53;0.40;;;;;;;;;;5124953;28;20030;-70
2023/10/31 14:01:40;;;;;;;2.25;0.60;;;;;;;;;;5133256;27;20014;-70
2023/10/31 14:04:07;;;;;;;0.30;0.30;;;;;;;;;;5129415;28;20015;-69
2023/10/31 14:06:33;;;;;;;1.73;0.50;;;;;;;;;;5123443;28;20102;-69
2023/10/31 14:09:00;;;;;;;1.40;0.40;;;;;;;;;;5109737;28;20024;-70
2023/10/31 14:11:26;;;;;;;2.25;0.63;;;;;;;;;;5126379;27;20034;-69
2023/10/31 14:13:52;;;;;;;5.38;0.63;;;;;;;;;;5126016;28;20015;-67
2023/10/31 14:16:18;;;;;;;2.67;0.60;;;;;;;;;;5131208;28;20061;-69
2023/10/31 14:18:45;;;;;;;1.58;0.57;;;;;;;;;;5130081;28;20046;-70
2023/10/31 14:21:12;;;;;;;1.52;0.50;;;;;;;;;;5131782;28;20092;-69
2023/10/31 14:23:38;;;;;;;4.78;1.52;;;;;;;;;;5122628;28;20016;-70
2023/10/31 14:26:04;;;;;;;1.23;0.50;;;;;;;;;;5120472;27;20030;-70
2023/10/31 14:28:30;;;;;;;3.25;0.50;;;;;;;;;;5131733;27;20023;-68
2023/10/31 14:30:57;;;;;;;2.30;0.60;;;;;;;;;;5119247;28;20423;-68
2023/10/31 14:33:23;;;;;;;1.45;0.60;;;;;;;;;;5131422;28;20103;-70
2023/10/31 14:35:49;;;;;;;0.82;0.57;;;;;;;;;;5134202;27;20019;-68
2023/10/31 14:38:15;;;;;;;3.05;0.60;;;;;;;;;;5131316;28;20026;-68
2023/10/31 14:40:41;;;;;;;1.60;0.50;;;;;;;;;;5130875;28;20451;-68